sensor_id;sensor_type;location;lat;lon;timestamp;P1;durP1;ratioP1;P2;durP2;ratioP2
3347;SDS011;1687;49.540;8.574;2023-09-12T00:01:09;21.50;;;9.10;;
3347;SDS011;1687;49.540;8.574;2023-09-12T00:03:36;24.13;;;9.97;;
3347;SDS011;1687;49.540;8.574;2023-09-12T00:06:02;27.10;;;9.80;;
3347;SDS011;1687;49.540;8.574;2023-09-12T00:08:29;23.00;;;9.60;;
3347;SDS011;1687;49.540;8.574;2023-09-12T00:11:13;22.00;;;9.10;;
3347;SDS011;1687;49.540;8.574;2023-09-12T00:13:40;21.23;;;9.40;;
3347;SDS011;1687;49.540;8.574;2023-09-12T00:16:06;31.03;;;10.07;;
3347;SDS011;1687;49.540;8.574;2023-09-12T00:18:39;24.37;;;8.77;;
3347;SDS011;1687;49.540;8.574;2023-09-12T00:21:05;35.90;;;10.00;;
3347;SDS011;1687;49.540;8.574;2023-09-12T00:23:31;24.57;;;10.20;;
3347;SDS011;1687;49.540;8.574;2023-09-12T00:25:57;20.63;;;9.17;;
3347;SDS011;1687;49.540;8.574;2023-09-12T00:28:23;18.93;;;9.73;;
3347;SDS011;1687;49.540;8.574;2023-09-12T00:30:49;16.70;;;9.10;;
3347;SDS011;1687;49.540;8.574;2023-09-12T00:33:16;16.27;;;9.30;;
3347;SDS011;1687;49.540;8.574;2023-09-12T00:35:43;18.27;;;9.57;;
3347;SDS011;1687;49.540;8.574;2023-09-12T00:38:10;29.90;;;10.17;;
3347;SDS011;1687;49.540;8.574;2023-09-12T00:40:35;20.10;;;8.80;;
3347;SDS011;1687;49.540;8.574;2023-09-12T00:43:02;19.17;;;9.47;;
3347;SDS011;1687;49.540;8.574;2023-09-12T00:45:29;23.80;;;10.10;;
3347;SDS011;1687;49.540;8.574;2023-09-12T00:47:55;26.30;;;10.63;;
3347;SDS011;1687;49.540;8.574;2023-09-12T00:50:23;24.43;;;9.60;;
3347;SDS011;1687;49.540;8.574;2023-09-12T00:52:50;39.40;;;9.67;;
3347;SDS011;1687;49.540;8.574;2023-09-12T00:55:18;19.67;;;8.97;;
3347;SDS011;1687;49.540;8.574;2023-09-12T00:57:44;20.93;;;9.60;;
3347;SDS011;1687;49.540;8.574;2023-09-12T01:00:11;32.73;;;9.50;;
3347;SDS011;1687;49.540;8.574;2023-09-12T01:02:39;23.63;;;9.10;;
3347;SDS011;1687;49.540;8.574;2023-09-12T01:05:06;27.93;;;8.70;;
3347;SDS011;1687;49.540;8.574;2023-09-12T01:07:33;20.87;;;9.33;;
3347;SDS011;1687;49.540;8.574;2023-09-12T01:10:03;17.90;;;9.77;;
3347;SDS011;1687;49.540;8.574;2023-09-12T01:12:33;18.80;;;9.97;;
3347;SDS011;1687;49.540;8.574;2023-09-12T01:14:59;27.53;;;9.63;;
3347;SDS011;1687;49.540;8.574;2023-09-12T01:17:25;20.40;;;9.73;;
3347;SDS011;1687;49.540;8.574;2023-09-12T01:19:53;20.63;;;10.10;;
3347;SDS011;1687;49.540;8.574;2023-09-12T01:27:51;15.80;;;9.57;;
3347;SDS011;1687;49.540;8.574;2023-09-12T01:30:20;26.43;;;10.53;;
3347;SDS011;1687;49.540;8.574;2023-09-12T01:32:47;17.87;;;9.70;;
3347;SDS011;1687;49.540;8.574;2023-09-12T01:35:14;21.57;;;8.80;;
3347;SDS011;1687;49.540;8.574;2023-09-12T01:37:40;25.03;;;9.40;;
3347;SDS011;1687;49.540;8.574;2023-09-12T01:40:06;20.13;;;10.43;;
3347;SDS011;1687;49.540;8.574;2023-09-12T01:42:35;25.50;;;9.97;;
3347;SDS011;1687;49.540;8.574;2023-09-12T01:45:03;20.53;;;10.40;;
3347;SDS011;1687;49.540;8.574;2023-09-12T01:47:31;27.10;;;10.07;;
3347;SDS011;1687;49.540;8.574;2023-09-12T01:49:58;24.83;;;10.03;;
3347;SDS011;1687;49.540;8.574;2023-09-12T01:52:27;17.43;;;9.20;;
3347;SDS011;1687;49.540;8.574;2023-09-12T01:54:53;18.90;;;10.10;;
3347;SDS011;1687;49.540;8.574;2023-09-12T01:57:20;18.53;;;10.70;;
3347;SDS011;1687;49.540;8.574;2023-09-12T01:59:47;20.83;;;9.10;;
3347;SDS011;1687;49.540;8.574;2023-09-12T02:02:14;19.40;;;10.00;;
3347;SDS011;1687;49.540;8.574;2023-09-12T02:04:41;25.60;;;9.33;;
3347;SDS011;1687;49.540;8.574;2023-09-12T02:07:16;16.30;;;8.13;;
3347;SDS011;1687;49.540;8.574;2023-09-12T02:09:41;21.30;;;9.83;;
3347;SDS011;1687;49.540;8.574;2023-09-12T02:12:07;20.03;;;9.70;;
3347;SDS011;1687;49.540;8.574;2023-09-12T02:14:33;20.63;;;9.40;;
3347;SDS011;1687;49.540;8.574;2023-09-12T02:16:59;19.10;;;9.23;;
3347;SDS011;1687;49.540;8.574;2023-09-12T02:19:25;28.47;;;10.00;;
3347;SDS011;1687;49.540;8.574;2023-09-12T02:21:50;22.20;;;8.90;;
3347;SDS011;1687;49.540;8.574;2023-09-12T02:24:16;22.87;;;9.70;;
3347;SDS011;1687;49.540;8.574;2023-09-12T02:26:43;22.57;;;10.33;;
3347;SDS011;1687;49.540;8.574;2023-09-12T02:29:09;18.97;;;9.37;;
3347;SDS011;1687;49.540;8.574;2023-09-12T02:31:35;15.23;;;9.37;;
3347;SDS011;1687;49.540;8.574;2023-09-12T02:34:00;27.50;;;9.70;;
3347;SDS011;1687;49.540;8.574;2023-09-12T02:36:26;22.73;;;11.97;;
3347;SDS011;1687;49.540;8.574;2023-09-12T02:38:53;17.10;;;10.07;;
3347;SDS011;1687;49.540;8.574;2023-09-12T02:41:18;15.10;;;8.70;;
3347;SDS011;1687;49.540;8.574;2023-09-12T02:43:44;19.57;;;9.63;;
3347;SDS011;1687;49.540;8.574;2023-09-12T02:46:10;26.33;;;9.53;;
3347;SDS011;1687;49.540;8.574;2023-09-12T02:48:35;23.93;;;10.20;;
3347;SDS011;1687;49.540;8.574;2023-09-12T02:51:01;19.50;;;10.40;;
3347;SDS011;1687;49.540;8.574;2023-09-12T02:53:27;25.00;;;10.80;;
3347;SDS011;1687;49.540;8.574;2023-09-12T02:55:52;21.37;;;8.47;;
3347;SDS011;1687;49.540;8.574;2023-09-12T02:58:19;21.43;;;9.27;;
3347;SDS011;1687;49.540;8.574;2023-09-12T03:00:45;19.90;;;8.83;;
3347;SDS011;1687;49.540;8.574;2023-09-12T03:03:10;14.87;;;8.90;;
3347;SDS011;1687;49.540;8.574;2023-09-12T03:05:36;16.73;;;9.07;;
3347;SDS011;1687;49.540;8.574;2023-09-12T03:08:02;15.93;;;9.27;;
3347;SDS011;1687;49.540;8.574;2023-09-12T03:10:29;18.77;;;9.37;;
3347;SDS011;1687;49.540;8.574;2023-09-12T03:12:54;19.53;;;9.43;;
3347;SDS011;1687;49.540;8.574;2023-09-12T03:15:20;25.87;;;10.03;;
3347;SDS011;1687;49.540;8.574;2023-09-12T03:17:46;19.73;;;9.63;;
3347;SDS011;1687;49.540;8.574;2023-09-12T03:20:11;23.23;;;11.33;;
3347;SDS011;1687;49.540;8.574;2023-09-12T03:22:37;25.67;;;10.60;;
3347;SDS011;1687;49.540;8.574;2023-09-12T03:25:03;17.40;;;10.00;;
3347;SDS011;1687;49.540;8.574;2023-09-12T03:27:30;22.63;;;11.20;;
3347;SDS011;1687;49.540;8.574;2023-09-12T03:29:57;18.00;;;9.93;;
3347;SDS011;1687;49.540;8.574;2023-09-12T03:32:23;18.20;;;8.90;;
3347;SDS011;1687;49.540;8.574;2023-09-12T03:34:48;21.00;;;9.93;;
3347;SDS011;1687;49.540;8.574;2023-09-12T03:37:14;22.93;;;10.27;;
3347;SDS011;1687;49.540;8.574;2023-09-12T03:39:40;26.53;;;10.20;;
3347;SDS011;1687;49.540;8.574;2023-09-12T03:42:06;31.63;;;11.33;;
3347;SDS011;1687;49.540;8.574;2023-09-12T03:44:31;21.80;;;9.17;;
3347;SDS011;1687;49.540;8.574;2023-09-12T03:46:57;17.80;;;9.23;;
3347;SDS011;1687;49.540;8.574;2023-09-12T03:49:23;25.40;;;10.40;;
3347;SDS011;1687;49.540;8.574;2023-09-12T03:51:49;17.00;;;8.83;;
3347;SDS011;1687;49.540;8.574;2023-09-12T03:54:14;24.77;;;10.13;;
3347;SDS011;1687;49.540;8.574;2023-09-12T03:56:40;40.43;;;11.17;;
3347;SDS011;1687;49.540;8.574;2023-09-12T03:59:06;20.40;;;10.67;;
3347;SDS011;1687;49.540;8.574;2023-09-12T04:01:31;18.50;;;10.17;;
3347;SDS011;1687;49.540;8.574;2023-09-12T04:03:57;27.43;;;11.40;;
3347;SDS011;1687;49.540;8.574;2023-09-12T04:06:23;21.17;;;10.40;;
3347;SDS011;1687;49.540;8.574;2023-09-12T04:08:49;22.77;;;10.43;;
3347;SDS011;1687;49.540;8.574;2023-09-12T04:11:14;15.57;;;9.60;;
3347;SDS011;1687;49.540;8.574;2023-09-12T04:13:40;22.30;;;11.20;;
3347;SDS011;1687;49.540;8.574;2023-09-12T04:16:06;20.23;;;10.30;;
3347;SDS011;1687;49.540;8.574;2023-09-12T04:18:31;19.47;;;11.67;;
3347;SDS011;1687;49.540;8.574;2023-09-12T04:20:57;23.90;;;11.10;;
3347;SDS011;1687;49.540;8.574;2023-09-12T04:23:24;23.93;;;11.93;;
3347;SDS011;1687;49.540;8.574;2023-09-12T04:25:50;36.63;;;11.20;;
3347;SDS011;1687;49.540;8.574;2023-09-12T04:28:16;32.40;;;12.23;;
3347;SDS011;1687;49.540;8.574;2023-09-12T04:30:42;28.43;;;12.60;;
3347;SDS011;1687;49.540;8.574;2023-09-12T04:33:07;26.43;;;10.87;;
3347;SDS011;1687;49.540;8.574;2023-09-12T04:35:34;28.40;;;14.00;;
3347;SDS011;1687;49.540;8.574;2023-09-12T04:38:00;24.83;;;12.30;;
3347;SDS011;1687;49.540;8.574;2023-09-12T04:40:26;26.70;;;11.63;;
3347;SDS011;1687;49.540;8.574;2023-09-12T04:42:52;23.90;;;12.27;;
3347;SDS011;1687;49.540;8.574;2023-09-12T04:45:18;25.33;;;12.03;;
3347;SDS011;1687;49.540;8.574;2023-09-12T04:47:44;27.23;;;12.30;;
3347;SDS011;1687;49.540;8.574;2023-09-12T04:50:09;30.93;;;12.33;;
3347;SDS011;1687;49.540;8.574;2023-09-12T04:52:36;34.30;;;13.60;;
3347;SDS011;1687;49.540;8.574;2023-09-12T04:55:03;23.50;;;13.17;;
3347;SDS011;1687;49.540;8.574;2023-09-12T04:57:29;31.60;;;13.50;;
3347;SDS011;1687;49.540;8.574;2023-09-12T04:59:56;31.63;;;12.50;;
3347;SDS011;1687;49.540;8.574;2023-09-12T05:02:23;23.70;;;12.87;;
3347;SDS011;1687;49.540;8.574;2023-09-12T05:04:50;26.43;;;12.63;;
3347;SDS011;1687;49.540;8.574;2023-09-12T05:07:16;22.53;;;12.23;;
3347;SDS011;1687;49.540;8.574;2023-09-12T05:09:42;26.23;;;13.30;;
3347;SDS011;1687;49.540;8.574;2023-09-12T05:12:07;29.13;;;14.03;;
3347;SDS011;1687;49.540;8.574;2023-09-12T05:14:33;26.30;;;14.20;;
3347;SDS011;1687;49.540;8.574;2023-09-12T05:16:59;34.90;;;15.17;;
3347;SDS011;1687;49.540;8.574;2023-09-12T05:19:26;29.27;;;13.50;;
3347;SDS011;1687;49.540;8.574;2023-09-12T05:21:52;31.33;;;14.07;;
3347;SDS011;1687;49.540;8.574;2023-09-12T05:24:18;29.33;;;14.80;;
3347;SDS011;1687;49.540;8.574;2023-09-12T05:26:43;34.00;;;14.23;;
3347;SDS011;1687;49.540;8.574;2023-09-12T05:29:09;26.37;;;14.27;;
3347;SDS011;1687;49.540;8.574;2023-09-12T05:31:35;29.10;;;13.70;;
3347;SDS011;1687;49.540;8.574;2023-09-12T05:34:00;38.80;;;16.27;;
3347;SDS011;1687;49.540;8.574;2023-09-12T05:36:26;37.27;;;14.63;;
3347;SDS011;1687;49.540;8.574;2023-09-12T05:38:52;26.47;;;14.57;;
3347;SDS011;1687;49.540;8.574;2023-09-12T05:41:18;29.20;;;15.20;;
3347;SDS011;1687;49.540;8.574;2023-09-12T05:43:43;26.60;;;14.00;;
3347;SDS011;1687;49.540;8.574;2023-09-12T05:46:09;38.43;;;13.50;;
3347;SDS011;1687;49.540;8.574;2023-09-12T05:48:35;42.93;;;14.30;;
3347;SDS011;1687;49.540;8.574;2023-09-12T05:51:01;41.50;;;13.90;;
3347;SDS011;1687;49.540;8.574;2023-09-12T05:53:27;36.30;;;16.97;;
3347;SDS011;1687;49.540;8.574;2023-09-12T05:55:53;44.83;;;14.13;;
3347;SDS011;1687;49.540;8.574;2023-09-12T05:58:18;37.97;;;16.73;;
3347;SDS011;1687;49.540;8.574;2023-09-12T06:00:44;32.97;;;14.77;;
3347;SDS011;1687;49.540;8.574;2023-09-12T06:03:14;29.63;;;15.17;;
3347;SDS011;1687;49.540;8.574;2023-09-12T06:05:40;25.37;;;13.73;;
3347;SDS011;1687;49.540;8.574;2023-09-12T06:08:05;31.57;;;14.83;;
3347;SDS011;1687;49.540;8.574;2023-09-12T06:10:31;42.20;;;14.40;;
3347;SDS011;1687;49.540;8.574;2023-09-12T06:12:57;30.57;;;14.87;;
3347;SDS011;1687;49.540;8.574;2023-09-12T06:18:12;27.67;;;14.47;;
3347;SDS011;1687;49.540;8.574;2023-09-12T06:20:38;28.10;;;13.83;;
3347;SDS011;1687;49.540;8.574;2023-09-12T06:23:03;26.00;;;14.33;;
3347;SDS011;1687;49.540;8.574;2023-09-12T06:25:30;30.83;;;14.43;;
3347;SDS011;1687;49.540;8.574;2023-09-12T06:27:56;27.20;;;14.83;;
3347;SDS011;1687;49.540;8.574;2023-09-12T06:30:21;28.33;;;11.53;;
3347;SDS011;1687;49.540;8.574;2023-09-12T06:32:47;42.83;;;13.50;;
3347;SDS011;1687;49.540;8.574;2023-09-12T06:35:12;28.50;;;12.60;;
3347;SDS011;1687;49.540;8.574;2023-09-12T06:37:38;27.93;;;13.57;;
3347;SDS011;1687;49.540;8.574;2023-09-12T06:40:05;38.87;;;12.43;;
3347;SDS011;1687;49.540;8.574;2023-09-12T06:42:32;30.20;;;12.77;;
3347;SDS011;1687;49.540;8.574;2023-09-12T06:44:57;30.70;;;12.37;;
3347;SDS011;1687;49.540;8.574;2023-09-12T06:47:23;23.67;;;12.87;;
3347;SDS011;1687;49.540;8.574;2023-09-12T06:49:49;25.67;;;13.77;;
3347;SDS011;1687;49.540;8.574;2023-09-12T06:52:15;21.43;;;13.40;;
3347;SDS011;1687;49.540;8.574;2023-09-12T06:54:40;32.53;;;13.67;;
3347;SDS011;1687;49.540;8.574;2023-09-12T06:57:07;30.77;;;14.77;;
3347;SDS011;1687;49.540;8.574;2023-09-12T06:59:32;20.87;;;11.20;;
3347;SDS011;1687;49.540;8.574;2023-09-12T07:01:58;33.77;;;12.53;;
3347;SDS011;1687;49.540;8.574;2023-09-12T07:04:24;28.03;;;12.37;;
3347;SDS011;1687;49.540;8.574;2023-09-12T07:06:50;34.00;;;12.60;;
3347;SDS011;1687;49.540;8.574;2023-09-12T07:09:16;55.43;;;13.87;;
3347;SDS011;1687;49.540;8.574;2023-09-12T07:11:42;30.73;;;12.00;;
3347;SDS011;1687;49.540;8.574;2023-09-12T07:14:11;28.63;;;11.97;;
3347;SDS011;1687;49.540;8.574;2023-09-12T07:16:37;31.50;;;13.80;;
3347;SDS011;1687;49.540;8.574;2023-09-12T07:19:02;27.30;;;12.63;;
3347;SDS011;1687;49.540;8.574;2023-09-12T07:21:28;32.63;;;13.57;;
3347;SDS011;1687;49.540;8.574;2023-09-12T07:23:54;31.83;;;13.57;;
3347;SDS011;1687;49.540;8.574;2023-09-12T07:26:20;45.20;;;14.57;;
3347;SDS011;1687;49.540;8.574;2023-09-12T07:28:46;27.70;;;14.80;;
3347;SDS011;1687;49.540;8.574;2023-09-12T07:31:12;38.00;;;16.10;;
3347;SDS011;1687;49.540;8.574;2023-09-12T07:33:37;35.83;;;16.60;;
3347;SDS011;1687;49.540;8.574;2023-09-12T07:36:03;41.50;;;16.70;;
3347;SDS011;1687;49.540;8.574;2023-09-12T07:38:29;54.67;;;19.43;;
3347;SDS011;1687;49.540;8.574;2023-09-12T07:40:56;38.00;;;15.67;;
3347;SDS011;1687;49.540;8.574;2023-09-12T07:43:22;50.37;;;18.57;;
3347;SDS011;1687;49.540;8.574;2023-09-12T07:45:49;65.60;;;23.53;;
3347;SDS011;1687;49.540;8.574;2023-09-12T07:48:20;114.30;;;32.33;;
3347;SDS011;1687;49.540;8.574;2023-09-12T07:50:45;121.00;;;34.47;;
3347;SDS011;1687;49.540;8.574;2023-09-12T07:53:11;59.73;;;21.90;;
3347;SDS011;1687;49.540;8.574;2023-09-12T07:55:37;41.83;;;19.43;;
3347;SDS011;1687;49.540;8.574;2023-09-12T07:58:19;40.43;;;17.90;;
3347;SDS011;1687;49.540;8.574;2023-09-12T08:00:45;37.60;;;18.53;;
3347;SDS011;1687;49.540;8.574;2023-09-12T08:03:11;64.60;;;22.40;;
3347;SDS011;1687;49.540;8.574;2023-09-12T08:05:37;39.23;;;18.40;;
3347;SDS011;1687;49.540;8.574;2023-09-12T08:08:03;33.80;;;16.93;;
3347;SDS011;1687;49.540;8.574;2023-09-12T08:10:29;41.90;;;15.83;;
3347;SDS011;1687;49.540;8.574;2023-09-12T08:12:55;35.73;;;16.53;;
3347;SDS011;1687;49.540;8.574;2023-09-12T08:15:20;36.13;;;16.33;;
3347;SDS011;1687;49.540;8.574;2023-09-12T08:17:46;35.63;;;17.67;;
3347;SDS011;1687;49.540;8.574;2023-09-12T08:20:16;52.03;;;19.93;;
3347;SDS011;1687;49.540;8.574;2023-09-12T08:22:44;38.37;;;17.70;;
3347;SDS011;1687;49.540;8.574;2023-09-12T08:25:09;53.53;;;18.60;;
3347;SDS011;1687;49.540;8.574;2023-09-12T08:27:37;30.50;;;16.80;;
3347;SDS011;1687;49.540;8.574;2023-09-12T08:30:03;77.63;;;23.17;;
3347;SDS011;1687;49.540;8.574;2023-09-12T08:32:29;32.50;;;16.57;;
3347;SDS011;1687;49.540;8.574;2023-09-12T08:34:54;30.97;;;13.93;;
3347;SDS011;1687;49.540;8.574;2023-09-12T08:37:20;20.53;;;12.40;;
3347;SDS011;1687;49.540;8.574;2023-09-12T08:39:46;21.13;;;13.10;;
3347;SDS011;1687;49.540;8.574;2023-09-12T08:42:12;34.37;;;12.07;;
3347;SDS011;1687;49.540;8.574;2023-09-12T08:44:43;30.23;;;12.33;;
3347;SDS011;1687;49.540;8.574;2023-09-12T08:47:09;21.43;;;11.80;;
3347;SDS011;1687;49.540;8.574;2023-09-12T08:49:36;19.70;;;10.77;;
3347;SDS011;1687;49.540;8.574;2023-09-12T08:52:03;25.67;;;11.23;;
3347;SDS011;1687;49.540;8.574;2023-09-12T08:54:30;16.80;;;10.13;;
3347;SDS011;1687;49.540;8.574;2023-09-12T08:57:01;16.03;;;10.97;;
3347;SDS011;1687;49.540;8.574;2023-09-12T08:59:29;23.00;;;12.30;;
3347;SDS011;1687;49.540;8.574;2023-09-12T09:01:57;26.03;;;12.07;;
3347;SDS011;1687;49.540;8.574;2023-09-12T09:04:24;29.73;;;11.10;;
3347;SDS011;1687;49.540;8.574;2023-09-12T09:06:54;26.50;;;11.03;;
3347;SDS011;1687;49.540;8.574;2023-09-12T09:09:23;17.13;;;11.53;;
3347;SDS011;1687;49.540;8.574;2023-09-12T09:11:53;36.37;;;13.90;;
3347;SDS011;1687;49.540;8.574;2023-09-12T09:14:19;43.33;;;13.53;;
3347;SDS011;1687;49.540;8.574;2023-09-12T09:16:45;36.50;;;12.83;;
3347;SDS011;1687;49.540;8.574;2023-09-12T09:19:10;22.60;;;12.67;;
3347;SDS011;1687;49.540;8.574;2023-09-12T09:21:37;23.27;;;12.77;;
3347;SDS011;1687;49.540;8.574;2023-09-12T09:24:09;27.30;;;11.80;;
3347;SDS011;1687;49.540;8.574;2023-09-12T09:26:42;23.70;;;11.70;;
3347;SDS011;1687;49.540;8.574;2023-09-12T09:29:18;26.23;;;11.57;;
3347;SDS011;1687;49.540;8.574;2023-09-12T09:31:46;20.20;;;11.77;;
3347;SDS011;1687;49.540;8.574;2023-09-12T09:34:15;20.53;;;11.00;;
3347;SDS011;1687;49.540;8.574;2023-09-12T09:39:12;15.43;;;11.87;;
3347;SDS011;1687;49.540;8.574;2023-09-12T09:41:38;17.10;;;11.87;;
3347;SDS011;1687;49.540;8.574;2023-09-12T09:44:05;15.63;;;10.50;;
3347;SDS011;1687;49.540;8.574;2023-09-12T09:46:32;20.10;;;11.87;;
3347;SDS011;1687;49.540;8.574;2023-09-12T09:49:00;17.97;;;11.20;;
3347;SDS011;1687;49.540;8.574;2023-09-12T09:51:26;14.93;;;10.60;;
3347;SDS011;1687;49.540;8.574;2023-09-12T09:53:52;27.93;;;11.03;;
3347;SDS011;1687;49.540;8.574;2023-09-12T09:56:22;15.77;;;10.20;;
3347;SDS011;1687;49.540;8.574;2023-09-12T09:58:55;16.10;;;11.20;;
3347;SDS011;1687;49.540;8.574;2023-09-12T10:01:22;25.37;;;11.70;;
3347;SDS011;1687;49.540;8.574;2023-09-12T10:03:53;17.53;;;10.50;;
3347;SDS011;1687;49.540;8.574;2023-09-12T10:06:24;16.60;;;10.67;;
3347;SDS011;1687;49.540;8.574;2023-09-12T10:08:52;18.57;;;11.80;;
3347;SDS011;1687;49.540;8.574;2023-09-12T10:11:23;20.90;;;11.47;;
3347;SDS011;1687;49.540;8.574;2023-09-12T10:13:53;22.40;;;10.10;;
3347;SDS011;1687;49.540;8.574;2023-09-12T10:16:23;23.63;;;11.00;;
3347;SDS011;1687;49.540;8.574;2023-09-12T10:19:04;22.43;;;11.50;;
3347;SDS011;1687;49.540;8.574;2023-09-12T10:21:46;18.87;;;10.87;;
3347;SDS011;1687;49.540;8.574;2023-09-12T10:24:37;16.80;;;10.77;;
3347;SDS011;1687;49.540;8.574;2023-09-12T10:27:05;13.80;;;9.60;;
3347;SDS011;1687;49.540;8.574;2023-09-12T10:29:32;17.93;;;10.80;;
3347;SDS011;1687;49.540;8.574;2023-09-12T10:31:58;19.83;;;10.57;;
3347;SDS011;1687;49.540;8.574;2023-09-12T10:34:25;23.43;;;10.70;;
3347;SDS011;1687;49.540;8.574;2023-09-12T10:36:52;14.60;;;8.43;;
3347;SDS011;1687;49.540;8.574;2023-09-12T10:39:20;18.60;;;9.50;;
3347;SDS011;1687;49.540;8.574;2023-09-12T10:41:47;24.60;;;11.30;;
3347;SDS011;1687;49.540;8.574;2023-09-12T10:44:16;16.37;;;9.00;;
3347;SDS011;1687;49.540;8.574;2023-09-12T10:46:43;15.50;;;9.67;;
3347;SDS011;1687;49.540;8.574;2023-09-12T10:49:12;18.07;;;9.90;;
3347;SDS011;1687;49.540;8.574;2023-09-12T10:51:39;13.47;;;9.50;;
3347;SDS011;1687;49.540;8.574;2023-09-12T10:54:07;14.00;;;9.30;;
3347;SDS011;1687;49.540;8.574;2023-09-12T10:56:35;20.30;;;10.07;;
3347;SDS011;1687;49.540;8.574;2023-09-12T11:01:29;19.53;;;9.60;;
3347;SDS011;1687;49.540;8.574;2023-09-12T11:03:56;33.90;;;11.97;;
3347;SDS011;1687;49.540;8.574;2023-09-12T11:06:23;15.80;;;10.10;;
3347;SDS011;1687;49.540;8.574;2023-09-12T11:11:43;15.73;;;10.47;;
3347;SDS011;1687;49.540;8.574;2023-09-12T11:14:19;21.07;;;11.10;;
3347;SDS011;1687;49.540;8.574;2023-09-12T11:19:48;18.80;;;10.20;;
3347;SDS011;1687;49.540;8.574;2023-09-12T11:22:22;16.40;;;11.23;;
3347;SDS011;1687;49.540;8.574;2023-09-12T11:24:53;14.10;;;10.20;;
3347;SDS011;1687;49.540;8.574;2023-09-12T11:27:25;28.00;;;11.63;;
3347;SDS011;1687;49.540;8.574;2023-09-12T11:30:07;10.40;;;9.07;;
3347;SDS011;1687;49.540;8.574;2023-09-12T11:32:34;20.23;;;10.90;;
3347;SDS011;1687;49.540;8.574;2023-09-12T11:35:07;16.87;;;10.47;;
3347;SDS011;1687;49.540;8.574;2023-09-12T11:37:35;16.20;;;10.60;;
3347;SDS011;1687;49.540;8.574;2023-09-12T11:42:39;16.57;;;9.53;;
3347;SDS011;1687;49.540;8.574;2023-09-12T11:45:09;16.20;;;10.83;;
3347;SDS011;1687;49.540;8.574;2023-09-12T11:47:41;22.90;;;10.20;;
3347;SDS011;1687;49.540;8.574;2023-09-12T11:50:08;19.43;;;10.93;;
3347;SDS011;1687;49.540;8.574;2023-09-12T11:53:01;14.93;;;9.57;;
3347;SDS011;1687;49.540;8.574;2023-09-12T11:55:32;11.80;;;9.03;;
3347;SDS011;1687;49.540;8.574;2023-09-12T11:58:10;14.70;;;10.43;;
3347;SDS011;1687;49.540;8.574;2023-09-12T12:00:36;19.53;;;10.00;;
3347;SDS011;1687;49.540;8.574;2023-09-12T12:03:03;20.50;;;8.87;;
3347;SDS011;1687;49.540;8.574;2023-09-12T12:05:29;15.50;;;9.67;;
3347;SDS011;1687;49.540;8.574;2023-09-12T12:07:55;14.17;;;10.00;;
3347;SDS011;1687;49.540;8.574;2023-09-12T12:10:23;15.70;;;9.80;;
3347;SDS011;1687;49.540;8.574;2023-09-12T12:12:52;15.43;;;9.33;;
3347;SDS011;1687;49.540;8.574;2023-09-12T12:15:18;14.90;;;9.80;;
3347;SDS011;1687;49.540;8.574;2023-09-12T12:17:44;15.50;;;9.90;;
3347;SDS011;1687;49.540;8.574;2023-09-12T12:20:10;14.43;;;9.27;;
3347;SDS011;1687;49.540;8.574;2023-09-12T12:22:40;17.93;;;9.93;;
3347;SDS011;1687;49.540;8.574;2023-09-12T12:25:06;13.47;;;9.63;;
3347;SDS011;1687;49.540;8.574;2023-09-12T12:27:34;10.70;;;9.30;;
3347;SDS011;1687;49.540;8.574;2023-09-12T12:30:05;21.50;;;10.60;;
3347;SDS011;1687;49.540;8.574;2023-09-12T12:32:33;12.33;;;8.53;;
3347;SDS011;1687;49.540;8.574;2023-09-12T12:34:59;13.13;;;9.23;;
3347;SDS011;1687;49.540;8.574;2023-09-12T12:37:28;17.10;;;9.00;;
3347;SDS011;1687;49.540;8.574;2023-09-12T12:39:58;16.60;;;9.20;;
3347;SDS011;1687;49.540;8.574;2023-09-12T12:42:25;18.00;;;8.90;;
3347;SDS011;1687;49.540;8.574;2023-09-12T12:45:15;21.90;;;9.93;;
3347;SDS011;1687;49.540;8.574;2023-09-12T12:47:43;23.50;;;9.80;;
3347;SDS011;1687;49.540;8.574;2023-09-12T12:50:12;12.07;;;9.10;;
3347;SDS011;1687;49.540;8.574;2023-09-12T12:52:39;21.43;;;9.80;;
3347;SDS011;1687;49.540;8.574;2023-09-12T12:55:09;12.50;;;9.47;;
3347;SDS011;1687;49.540;8.574;2023-09-12T12:57:37;17.20;;;9.50;;
3347;SDS011;1687;49.540;8.574;2023-09-12T13:00:07;14.90;;;8.97;;
3347;SDS011;1687;49.540;8.574;2023-09-12T13:02:41;10.73;;;8.97;;
3347;SDS011;1687;49.540;8.574;2023-09-12T13:07:53;11.77;;;9.00;;
3347;SDS011;1687;49.540;8.574;2023-09-12T13:10:20;16.70;;;9.50;;
3347;SDS011;1687;49.540;8.574;2023-09-12T13:12:47;11.80;;;9.30;;
3347;SDS011;1687;49.540;8.574;2023-09-12T13:15:14;15.73;;;9.60;;
3347;SDS011;1687;49.540;8.574;2023-09-12T13:17:40;11.83;;;8.87;;
3347;SDS011;1687;49.540;8.574;2023-09-12T13:20:07;15.20;;;9.97;;
3347;SDS011;1687;49.540;8.574;2023-09-12T13:22:34;11.73;;;9.40;;
3347;SDS011;1687;49.540;8.574;2023-09-12T13:25:00;17.70;;;9.53;;
3347;SDS011;1687;49.540;8.574;2023-09-12T13:27:27;11.50;;;9.20;;
3347;SDS011;1687;49.540;8.574;2023-09-12T13:29:52;17.60;;;9.63;;
3347;SDS011;1687;49.540;8.574;2023-09-12T13:32:18;14.93;;;9.80;;
3347;SDS011;1687;49.540;8.574;2023-09-12T13:34:47;13.53;;;9.73;;
3347;SDS011;1687;49.540;8.574;2023-09-12T13:37:12;16.93;;;8.90;;
3347;SDS011;1687;49.540;8.574;2023-09-12T13:39:41;13.70;;;9.20;;
3347;SDS011;1687;49.540;8.574;2023-09-12T13:42:12;20.10;;;9.73;;
3347;SDS011;1687;49.540;8.574;2023-09-12T13:44:39;27.70;;;9.80;;
3347;SDS011;1687;49.540;8.574;2023-09-12T13:47:05;29.20;;;9.37;;
3347;SDS011;1687;49.540;8.574;2023-09-12T13:49:30;12.10;;;9.27;;
3347;SDS011;1687;49.540;8.574;2023-09-12T13:51:56;22.83;;;9.17;;
3347;SDS011;1687;49.540;8.574;2023-09-12T13:54:22;12.63;;;10.10;;
3347;SDS011;1687;49.540;8.574;2023-09-12T13:56:47;17.80;;;9.07;;
3347;SDS011;1687;49.540;8.574;2023-09-12T13:59:13;18.23;;;8.80;;
3347;SDS011;1687;49.540;8.574;2023-09-12T14:01:39;12.47;;;9.30;;
3347;SDS011;1687;49.540;8.574;2023-09-12T14:04:04;12.60;;;9.07;;
3347;SDS011;1687;49.540;8.574;2023-09-12T14:06:32;12.60;;;8.80;;
3347;SDS011;1687;49.540;8.574;2023-09-12T14:08:59;10.60;;;8.87;;
3347;SDS011;1687;49.540;8.574;2023-09-12T14:11:25;10.53;;;8.50;;
3347;SDS011;1687;49.540;8.574;2023-09-12T14:13:50;9.87;;;7.97;;
3347;SDS011;1687;49.540;8.574;2023-09-12T14:16:16;9.57;;;7.97;;
3347;SDS011;1687;49.540;8.574;2023-09-12T14:18:42;14.87;;;8.30;;
3347;SDS011;1687;49.540;8.574;2023-09-12T14:21:07;9.20;;;7.70;;
3347;SDS011;1687;49.540;8.574;2023-09-12T14:23:33;10.77;;;8.37;;
3347;SDS011;1687;49.540;8.574;2023-09-12T14:25:59;8.97;;;8.07;;
3347;SDS011;1687;49.540;8.574;2023-09-12T14:28:24;8.10;;;7.20;;
3347;SDS011;1687;49.540;8.574;2023-09-12T14:30:50;7.60;;;6.73;;
3347;SDS011;1687;49.540;8.574;2023-09-12T14:33:17;10.13;;;7.10;;
3347;SDS011;1687;49.540;8.574;2023-09-12T14:35:43;6.97;;;6.27;;
3347;SDS011;1687;49.540;8.574;2023-09-12T14:38:09;10.57;;;7.10;;
3347;SDS011;1687;49.540;8.574;2023-09-12T14:40:36;7.63;;;7.03;;
3347;SDS011;1687;49.540;8.574;2023-09-12T14:43:03;7.10;;;6.40;;
3347;SDS011;1687;49.540;8.574;2023-09-12T14:45:28;10.23;;;6.33;;
3347;SDS011;1687;49.540;8.574;2023-09-12T14:47:55;10.20;;;6.00;;
3347;SDS011;1687;49.540;8.574;2023-09-12T14:50:22;6.23;;;5.70;;
3347;SDS011;1687;49.540;8.574;2023-09-12T14:52:54;7.03;;;6.35;;
3347;SDS011;1687;49.540;8.574;2023-09-12T14:55:20;5.95;;;5.45;;
3347;SDS011;1687;49.540;8.574;2023-09-12T14:57:47;5.80;;;5.30;;
3347;SDS011;1687;49.540;8.574;2023-09-12T15:00:13;15.57;;;5.38;;
3347;SDS011;1687;49.540;8.574;2023-09-12T15:02:39;5.82;;;5.43;;
3347;SDS011;1687;49.540;8.574;2023-09-12T15:05:05;6.57;;;5.80;;
3347;SDS011;1687;49.540;8.574;2023-09-12T15:07:31;5.55;;;5.00;;
3347;SDS011;1687;49.540;8.574;2023-09-12T15:09:58;5.55;;;5.15;;
3347;SDS011;1687;49.540;8.574;2023-09-12T15:12:25;6.15;;;4.88;;
3347;SDS011;1687;49.540;8.574;2023-09-12T15:14:51;6.53;;;6.03;;
3347;SDS011;1687;49.540;8.574;2023-09-12T15:17:17;6.35;;;5.75;;